sensor_id;sensor_type;location;lat;lon;timestamp;temperature;humidity
18073;DHT22;9161;47.348;9.648;2023-05-10T00:04:04;13.70;99.90
18073;DHT22;9161;47.348;9.648;2023-05-10T00:09:06;13.90;99.90
18073;DHT22;9161;47.348;9.648;2023-05-10T00:14:09;13.90;99.90
18073;DHT22;9161;47.348;9.648;2023-05-10T00:19:12;13.80;99.90
18073;DHT22;9161;47.348;9.648;2023-05-10T00:24:15;13.90;99.90
18073;DHT22;9161;47.348;9.648;2023-05-10T00:29:18;13.80;99.90
18073;DHT22;9161;47.348;9.648;2023-05-10T00:34:20;13.80;99.90
18073;DHT22;9161;47.348;9.648;2023-05-10T00:39:22;13.80;99.90
18073;DHT22;9161;47.348;9.648;2023-05-10T00:44:25;13.70;99.90
18073;DHT22;9161;47.348;9.648;2023-05-10T00:49:28;13.80;99.90
18073;DHT22;9161;47.348;9.648;2023-05-10T00:54:30;13.80;99.90
18073;DHT22;9161;47.348;9.648;2023-05-10T00:59:34;13.70;99.90
18073;DHT22;9161;47.348;9.648;2023-05-10T01:04:36;13.60;99.90
18073;DHT22;9161;47.348;9.648;2023-05-10T01:09:39;13.50;99.90
18073;DHT22;9161;47.348;9.648;2023-05-10T01:14:43;13.40;99.90
18073;DHT22;9161;47.348;9.648;2023-05-10T01:19:45;13.30;99.90
18073;DHT22;9161;47.348;9.648;2023-05-10T01:25:18;13.20;99.90
18073;DHT22;9161;47.348;9.648;2023-05-10T01:36:05;12.90;99.90
18073;DHT22;9161;47.348;9.648;2023-05-10T01:41:16;12.90;99.90
18073;DHT22;9161;47.348;9.648;2023-05-10T01:46:27;12.90;99.90
18073;DHT22;9161;47.348;9.648;2023-05-10T01:51:38;12.90;99.90
18073;DHT22;9161;47.348;9.648;2023-05-10T01:56:41;12.80;99.90
18073;DHT22;9161;47.348;9.648;2023-05-10T02:01:45;12.70;99.90
18073;DHT22;9161;47.348;9.648;2023-05-10T02:06:50;12.60;99.90
18073;DHT22;9161;47.348;9.648;2023-05-10T02:11:54;12.60;99.90
18073;DHT22;9161;47.348;9.648;2023-05-10T02:16:58;12.60;99.90
18073;DHT22;9161;47.348;9.648;2023-05-10T02:22:03;12.60;99.90
18073;DHT22;9161;47.348;9.648;2023-05-10T02:27:06;12.70;99.90
18073;DHT22;9161;47.348;9.648;2023-05-10T02:32:10;12.60;99.90
18073;DHT22;9161;47.348;9.648;2023-05-10T02:37:14;12.50;99.90
18073;DHT22;9161;47.348;9.648;2023-05-10T02:42:22;12.50;99.90
18073;DHT22;9161;47.348;9.648;2023-05-10T02:47:25;12.40;99.90
18073;DHT22;9161;47.348;9.648;2023-05-10T02:52:36;12.40;99.90
18073;DHT22;9161;47.348;9.648;2023-05-10T02:57:43;12.50;99.90
18073;DHT22;9161;47.348;9.648;2023-05-10T03:02:45;12.40;99.90
18073;DHT22;9161;47.348;9.648;2023-05-10T03:07:50;12.50;99.90
18073;DHT22;9161;47.348;9.648;2023-05-10T03:13:01;12.40;99.90
18073;DHT22;9161;47.348;9.648;2023-05-10T03:18:09;12.40;99.90
18073;DHT22;9161;47.348;9.648;2023-05-10T03:23:20;12.40;99.90
18073;DHT22;9161;47.348;9.648;2023-05-10T03:28:25;12.40;99.90
18073;DHT22;9161;47.348;9.648;2023-05-10T03:33:28;12.40;99.90
18073;DHT22;9161;47.348;9.648;2023-05-10T03:38:31;12.40;99.90
18073;DHT22;9161;47.348;9.648;2023-05-10T03:43:34;12.30;99.90
18073;DHT22;9161;47.348;9.648;2023-05-10T03:48:36;12.30;99.90
18073;DHT22;9161;47.348;9.648;2023-05-10T03:53:39;12.40;99.90
18073;DHT22;9161;47.348;9.648;2023-05-10T03:58:41;12.40;99.90
18073;DHT22;9161;47.348;9.648;2023-05-10T04:03:43;12.40;99.90
18073;DHT22;9161;47.348;9.648;2023-05-10T04:08:47;12.30;99.90
18073;DHT22;9161;47.348;9.648;2023-05-10T04:13:49;12.40;99.90
18073;DHT22;9161;47.348;9.648;2023-05-10T04:18:51;12.40;99.90
18073;DHT22;9161;47.348;9.648;2023-05-10T04:23:54;12.40;99.90
18073;DHT22;9161;47.348;9.648;2023-05-10T04:28:56;12.50;99.90
18073;DHT22;9161;47.348;9.648;2023-05-10T04:33:58;12.60;99.90
18073;DHT22;9161;47.348;9.648;2023-05-10T04:39:01;12.60;99.90
18073;DHT22;9161;47.348;9.648;2023-05-10T04:44:04;12.60;99.90
18073;DHT22;9161;47.348;9.648;2023-05-10T04:49:07;12.70;99.90
18073;DHT22;9161;47.348;9.648;2023-05-10T04:54:10;12.80;99.90
18073;DHT22;9161;47.348;9.648;2023-05-10T04:59:21;12.70;99.90
18073;DHT22;9161;47.348;9.648;2023-05-10T05:05:06;12.70;99.90
18073;DHT22;9161;47.348;9.648;2023-05-10T05:10:12;12.90;99.90
18073;DHT22;9161;47.348;9.648;2023-05-10T05:15:13;12.80;99.90
18073;DHT22;9161;47.348;9.648;2023-05-10T05:20:17;12.90;99.90
18073;DHT22;9161;47.348;9.648;2023-05-10T05:25:21;13.10;99.90
18073;DHT22;9161;47.348;9.648;2023-05-10T05:30:23;13.10;99.90
18073;DHT22;9161;47.348;9.648;2023-05-10T05:35:33;13.20;99.90
18073;DHT22;9161;47.348;9.648;2023-05-10T05:40:58;13.20;99.90
18073;DHT22;9161;47.348;9.648;2023-05-10T05:46:07;13.20;99.90
18073;DHT22;9161;47.348;9.648;2023-05-10T05:51:27;13.10;99.90
18073;DHT22;9161;47.348;9.648;2023-05-10T05:56:30;13.20;99.90
18073;DHT22;9161;47.348;9.648;2023-05-10T06:01:32;13.20;99.90
18073;DHT22;9161;47.348;9.648;2023-05-10T06:06:34;13.30;99.90
18073;DHT22;9161;47.348;9.648;2023-05-10T06:11:38;13.40;99.90
18073;DHT22;9161;47.348;9.648;2023-05-10T06:16:40;13.50;99.90
18073;DHT22;9161;47.348;9.648;2023-05-10T06:21:42;13.50;99.90
18073;DHT22;9161;47.348;9.648;2023-05-10T06:26:46;13.50;99.90
18073;DHT22;9161;47.348;9.648;2023-05-10T06:31:50;13.60;99.90
18073;DHT22;9161;47.348;9.648;2023-05-10T06:36:52;13.80;99.90
18073;DHT22;9161;47.348;9.648;2023-05-10T06:41:55;13.90;99.90
18073;DHT22;9161;47.348;9.648;2023-05-10T06:46:57;13.90;99.90
18073;DHT22;9161;47.348;9.648;2023-05-10T06:51:59;13.60;99.90
18073;DHT22;9161;47.348;9.648;2023-05-10T06:57:02;13.50;99.90
18073;DHT22;9161;47.348;9.648;2023-05-10T07:02:15;13.40;99.90
18073;DHT22;9161;47.348;9.648;2023-05-10T07:07:18;13.40;99.90
18073;DHT22;9161;47.348;9.648;2023-05-10T07:12:21;13.30;99.90
18073;DHT22;9161;47.348;9.648;2023-05-10T07:17:23;13.40;99.90
18073;DHT22;9161;47.348;9.648;2023-05-10T07:22:26;13.40;99.90
18073;DHT22;9161;47.348;9.648;2023-05-10T07:27:29;13.50;99.90
18073;DHT22;9161;47.348;9.648;2023-05-10T07:32:31;13.40;99.90
18073;DHT22;9161;47.348;9.648;2023-05-10T07:37:33;13.20;99.90
18073;DHT22;9161;47.348;9.648;2023-05-10T07:42:37;13.10;99.90
18073;DHT22;9161;47.348;9.648;2023-05-10T07:47:39;13.20;99.90
18073;DHT22;9161;47.348;9.648;2023-05-10T07:52:41;13.20;99.90
18073;DHT22;9161;47.348;9.648;2023-05-10T07:57:44;12.90;99.90
18073;DHT22;9161;47.348;9.648;2023-05-10T08:02:47;12.80;99.90
18073;DHT22;9161;47.348;9.648;2023-05-10T08:07:50;12.80;99.90
18073;DHT22;9161;47.348;9.648;2023-05-10T08:12:53;12.70;99.90
18073;DHT22;9161;47.348;9.648;2023-05-10T08:17:55;12.60;99.90
18073;DHT22;9161;47.348;9.648;2023-05-10T08:22:57;12.60;99.90
18073;DHT22;9161;47.348;9.648;2023-05-10T08:28:01;12.50;99.90
18073;DHT22;9161;47.348;9.648;2023-05-10T08:33:03;12.40;99.90
18073;DHT22;9161;47.348;9.648;2023-05-10T08:38:05;12.30;99.90
18073;DHT22;9161;47.348;9.648;2023-05-10T08:43:10;12.20;99.90
18073;DHT22;9161;47.348;9.648;2023-05-10T08:48:13;12.30;99.90
18073;DHT22;9161;47.348;9.648;2023-05-10T08:53:16;12.50;99.90
18073;DHT22;9161;47.348;9.648;2023-05-10T08:58:20;12.60;99.90
18073;DHT22;9161;47.348;9.648;2023-05-10T09:03:22;12.60;99.90
18073;DHT22;9161;47.348;9.648;2023-05-10T09:08:26;12.60;99.90
18073;DHT22;9161;47.348;9.648;2023-05-10T09:13:29;12.60;99.90
18073;DHT22;9161;47.348;9.648;2023-05-10T09:18:32;12.60;99.90
18073;DHT22;9161;47.348;9.648;2023-05-10T09:23:34;12.70;99.90
18073;DHT22;9161;47.348;9.648;2023-05-10T09:28:52;13.10;99.90
18073;DHT22;9161;47.348;9.648;2023-05-10T09:33:54;13.20;99.90
18073;DHT22;9161;47.348;9.648;2023-05-10T09:38:57;13.30;99.90
18073;DHT22;9161;47.348;9.648;2023-05-10T09:44:00;13.20;99.90
18073;DHT22;9161;47.348;9.648;2023-05-10T09:49:02;13.10;99.90
18073;DHT22;9161;47.348;9.648;2023-05-10T09:54:12;13.10;99.90
18073;DHT22;9161;47.348;9.648;2023-05-10T09:59:15;13.20;99.90
18073;DHT22;9161;47.348;9.648;2023-05-10T10:04:18;13.10;99.90
18073;DHT22;9161;47.348;9.648;2023-05-10T10:09:21;13.10;99.90
18073;DHT22;9161;47.348;9.648;2023-05-10T10:14:24;13.00;99.90
18073;DHT22;9161;47.348;9.648;2023-05-10T10:19:28;13.20;99.90
18073;DHT22;9161;47.348;9.648;2023-05-10T10:24:30;13.10;99.90
18073;DHT22;9161;47.348;9.648;2023-05-10T10:29:39;12.90;99.90
18073;DHT22;9161;47.348;9.648;2023-05-10T10:34:41;12.70;99.90
18073;DHT22;9161;47.348;9.648;2023-05-10T10:39:43;12.70;99.90
18073;DHT22;9161;47.348;9.648;2023-05-10T10:44:47;12.70;99.90
18073;DHT22;9161;47.348;9.648;2023-05-10T10:49:51;12.80;99.90
18073;DHT22;9161;47.348;9.648;2023-05-10T10:54:59;13.10;99.90
18073;DHT22;9161;47.348;9.648;2023-05-10T11:00:26;13.30;99.90
18073;DHT22;9161;47.348;9.648;2023-05-10T11:05:39;13.60;99.90
18073;DHT22;9161;47.348;9.648;2023-05-10T11:10:51;13.80;99.90
18073;DHT22;9161;47.348;9.648;2023-05-10T11:15:55;13.90;99.90
18073;DHT22;9161;47.348;9.648;2023-05-10T11:21:00;13.80;99.90
18073;DHT22;9161;47.348;9.648;2023-05-10T11:26:03;13.80;99.90
18073;DHT22;9161;47.348;9.648;2023-05-10T11:31:12;13.90;99.90
18073;DHT22;9161;47.348;9.648;2023-05-10T11:36:16;14.00;99.90
18073;DHT22;9161;47.348;9.648;2023-05-10T11:41:19;13.90;99.90
18073;DHT22;9161;47.348;9.648;2023-05-10T11:46:25;13.80;99.90
18073;DHT22;9161;47.348;9.648;2023-05-10T11:51:28;13.60;99.90
18073;DHT22;9161;47.348;9.648;2023-05-10T11:56:32;13.60;99.90
18073;DHT22;9161;47.348;9.648;2023-05-10T12:01:36;13.50;99.90
18073;DHT22;9161;47.348;9.648;2023-05-10T12:06:40;13.60;99.90
18073;DHT22;9161;47.348;9.648;2023-05-10T12:11:43;13.70;99.90
18073;DHT22;9161;47.348;9.648;2023-05-10T12:16:48;13.80;99.90
18073;DHT22;9161;47.348;9.648;2023-05-10T12:21:50;13.60;99.90
18073;DHT22;9161;47.348;9.648;2023-05-10T12:26:53;13.80;99.90
18073;DHT22;9161;47.348;9.648;2023-05-10T12:31:57;13.20;99.90
18073;DHT22;9161;47.348;9.648;2023-05-10T12:37:00;13.10;99.90
18073;DHT22;9161;47.348;9.648;2023-05-10T12:42:02;13.20;99.90
18073;DHT22;9161;47.348;9.648;2023-05-10T12:47:06;13.50;99.90
18073;DHT22;9161;47.348;9.648;2023-05-10T12:52:09;13.60;99.90
18073;DHT22;9161;47.348;9.648;2023-05-10T12:57:11;13.60;99.90
18073;DHT22;9161;47.348;9.648;2023-05-10T13:02:14;13.90;99.90
18073;DHT22;9161;47.348;9.648;2023-05-10T13:07:18;14.20;99.90
18073;DHT22;9161;47.348;9.648;2023-05-10T13:12:20;14.30;99.90
18073;DHT22;9161;47.348;9.648;2023-05-10T13:17:25;14.20;99.90
18073;DHT22;9161;47.348;9.648;2023-05-10T13:22:28;14.10;99.90
18073;DHT22;9161;47.348;9.648;2023-05-10T13:27:40;14.40;99.90
18073;DHT22;9161;47.348;9.648;2023-05-10T13:32:43;14.50;99.90
18073;DHT22;9161;47.348;9.648;2023-05-10T13:37:46;14.60;99.90
18073;DHT22;9161;47.348;9.648;2023-05-10T13:42:48;14.90;99.90
18073;DHT22;9161;47.348;9.648;2023-05-10T13:47:51;14.90;99.90
18073;DHT22;9161;47.348;9.648;2023-05-10T13:52:54;14.70;99.90
18073;DHT22;9161;47.348;9.648;2023-05-10T13:57:56;15.00;99.90
18073;DHT22;9161;47.348;9.648;2023-05-10T14:03:00;14.70;99.90
18073;DHT22;9161;47.348;9.648;2023-05-10T14:08:02;14.00;99.90
18073;DHT22;9161;47.348;9.648;2023-05-10T14:13:04;14.30;99.90
18073;DHT22;9161;47.348;9.648;2023-05-10T14:18:08;14.10;99.90
18073;DHT22;9161;47.348;9.648;2023-05-10T14:23:09;14.20;99.90
18073;DHT22;9161;47.348;9.648;2023-05-10T14:28:12;14.10;99.90
18073;DHT22;9161;47.348;9.648;2023-05-10T14:33:16;13.80;99.90
18073;DHT22;9161;47.348;9.648;2023-05-10T14:38:18;13.70;99.90
18073;DHT22;9161;47.348;9.648;2023-05-10T14:43:22;13.50;99.90
18073;DHT22;9161;47.348;9.648;2023-05-10T14:48:26;13.60;99.90
18073;DHT22;9161;47.348;9.648;2023-05-10T14:53:28;13.60;99.90
18073;DHT22;9161;47.348;9.648;2023-05-10T14:58:30;13.30;99.90
18073;DHT22;9161;47.348;9.648;2023-05-10T15:03:35;13.10;99.90
18073;DHT22;9161;47.348;9.648;2023-05-10T15:08:38;13.30;99.90
18073;DHT22;9161;47.348;9.648;2023-05-10T15:13:40;13.30;99.90
18073;DHT22;9161;47.348;9.648;2023-05-10T15:18:44;13.40;99.90
18073;DHT22;9161;47.348;9.648;2023-05-10T15:23:46;13.30;99.90
18073;DHT22;9161;47.348;9.648;2023-05-10T15:28:49;13.40;99.90
18073;DHT22;9161;47.348;9.648;2023-05-10T15:33:57;13.30;99.90
18073;DHT22;9161;47.348;9.648;2023-05-10T15:39:00;13.00;99.90
18073;DHT22;9161;47.348;9.648;2023-05-10T15:44:02;12.90;99.90
18073;DHT22;9161;47.348;9.648;2023-05-10T15:49:06;13.00;99.90
18073;DHT22;9161;47.348;9.648;2023-05-10T15:54:09;12.90;99.90
18073;DHT22;9161;47.348;9.648;2023-05-10T15:59:11;12.90;99.90
18073;DHT22;9161;47.348;9.648;2023-05-10T16:04:15;12.70;99.90
18073;DHT22;9161;47.348;9.648;2023-05-10T16:09:17;12.60;99.90
18073;DHT22;9161;47.348;9.648;2023-05-10T16:14:19;12.60;99.90
18073;DHT22;9161;47.348;9.648;2023-05-10T16:19:26;12.50;99.90
18073;DHT22;9161;47.348;9.648;2023-05-10T16:24:30;12.40;99.90
18073;DHT22;9161;47.348;9.648;2023-05-10T16:29:32;12.40;99.90
18073;DHT22;9161;47.348;9.648;2023-05-10T16:34:37;12.40;99.90
18073;DHT22;9161;47.348;9.648;2023-05-10T16:39:40;12.40;99.90
18073;DHT22;9161;47.348;9.648;2023-05-10T16:44:42;12.50;99.90
18073;DHT22;9161;47.348;9.648;2023-05-10T16:49:47;12.50;99.90
18073;DHT22;9161;47.348;9.648;2023-05-10T16:54:49;12.50;99.90
18073;DHT22;9161;47.348;9.648;2023-05-10T16:59:52;12.50;99.90
18073;DHT22;9161;47.348;9.648;2023-05-10T17:04:57;12.50;99.90
18073;DHT22;9161;47.348;9.648;2023-05-10T17:10:00;12.40;99.90
18073;DHT22;9161;47.348;9.648;2023-05-10T17:15:04;12.30;99.90
18073;DHT22;9161;47.348;9.648;2023-05-10T17:20:09;12.30;99.90
18073;DHT22;9161;47.348;9.648;2023-05-10T17:25:13;12.30;99.90
18073;DHT22;9161;47.348;9.648;2023-05-10T17:30:16;12.20;99.90
18073;DHT22;9161;47.348;9.648;2023-05-10T17:35:28;12.10;99.90
18073;DHT22;9161;47.348;9.648;2023-05-10T17:40:31;12.00;99.90
18073;DHT22;9161;47.348;9.648;2023-05-10T17:45:34;11.90;99.90
18073;DHT22;9161;47.348;9.648;2023-05-10T17:50:40;11.80;99.90
18073;DHT22;9161;47.348;9.648;2023-05-10T17:55:43;11.80;99.90
18073;DHT22;9161;47.348;9.648;2023-05-10T18:00:47;11.80;99.90
18073;DHT22;9161;47.348;9.648;2023-05-10T18:05:52;11.80;99.90
18073;DHT22;9161;47.348;9.648;2023-05-10T18:10:55;11.70;99.90
18073;DHT22;9161;47.348;9.648;2023-05-10T18:15:59;11.70;99.90
18073;DHT22;9161;47.348;9.648;2023-05-10T18:21:03;11.50;99.90
18073;DHT22;9161;47.348;9.648;2023-05-10T18:26:07;11.30;99.90
18073;DHT22;9161;47.348;9.648;2023-05-10T18:31:10;11.00;99.90
18073;DHT22;9161;47.348;9.648;2023-05-10T18:36:15;10.90;99.90
18073;DHT22;9161;47.348;9.648;2023-05-10T18:41:18;10.90;99.90
18073;DHT22;9161;47.348;9.648;2023-05-10T18:46:21;10.80;99.90
18073;DHT22;9161;47.348;9.648;2023-05-10T18:51:26;10.60;99.90
18073;DHT22;9161;47.348;9.648;2023-05-10T18:56:30;10.60;99.90
18073;DHT22;9161;47.348;9.648;2023-05-10T19:01:33;10.40;99.90
18073;DHT22;9161;47.348;9.648;2023-05-10T19:06:37;10.40;99.90
18073;DHT22;9161;47.348;9.648;2023-05-10T19:11:41;10.40;99.90
18073;DHT22;9161;47.348;9.648;2023-05-10T19:16:45;10.50;99.90
18073;DHT22;9161;47.348;9.648;2023-05-10T19:21:50;10.50;99.90
18073;DHT22;9161;47.348;9.648;2023-05-10T19:26:53;10.40;99.90
18073;DHT22;9161;47.348;9.648;2023-05-10T19:31:56;10.60;99.90
18073;DHT22;9161;47.348;9.648;2023-05-10T19:37:01;10.60;99.90
18073;DHT22;9161;47.348;9.648;2023-05-10T19:42:04;10.60;99.90
18073;DHT22;9161;47.348;9.648;2023-05-10T19:47:07;10.40;99.90
18073;DHT22;9161;47.348;9.648;2023-05-10T19:52:12;10.30;99.90
18073;DHT22;9161;47.348;9.648;2023-05-10T19:57:15;10.10;99.90
18073;DHT22;9161;47.348;9.648;2023-05-10T20:02:19;10.10;99.90
18073;DHT22;9161;47.348;9.648;2023-05-10T20:07:23;10.10;99.90
18073;DHT22;9161;47.348;9.648;2023-05-10T20:12:26;10.10;99.90
18073;DHT22;9161;47.348;9.648;2023-05-10T20:17:30;10.00;99.90
18073;DHT22;9161;47.348;9.648;2023-05-10T20:22:34;10.00;99.90
18073;DHT22;9161;47.348;9.648;2023-05-10T20:27:37;10.00;99.90
18073;DHT22;9161;47.348;9.648;2023-05-10T20:32:43;9.90;99.90
18073;DHT22;9161;47.348;9.648;2023-05-10T20:37:47;9.80;99.90
18073;DHT22;9161;47.348;9.648;2023-05-10T20:42:50;9.80;99.90
18073;DHT22;9161;47.348;9.648;2023-05-10T20:47:54;9.80;99.90
18073;DHT22;9161;47.348;9.648;2023-05-10T20:53:01;9.70;99.90
18073;DHT22;9161;47.348;9.648;2023-05-10T20:58:04;9.80;99.90
18073;DHT22;9161;47.348;9.648;2023-05-10T21:03:07;9.90;99.90
18073;DHT22;9161;47.348;9.648;2023-05-10T21:08:10;10.00;99.90
18073;DHT22;9161;47.348;9.648;2023-05-10T21:13:12;9.90;99.90
18073;DHT22;9161;47.348;9.648;2023-05-10T21:18:14;9.90;99.90
18073;DHT22;9161;47.348;9.648;2023-05-10T21:23:18;9.80;99.90
18073;DHT22;9161;47.348;9.648;2023-05-10T21:28:20;9.80;99.90
18073;DHT22;9161;47.348;9.648;2023-05-10T21:33:22;9.70;99.90
18073;DHT22;9161;47.348;9.648;2023-05-10T21:38:26;9.80;99.90
18073;DHT22;9161;47.348;9.648;2023-05-10T21:43:29;9.80;99.90
18073;DHT22;9161;47.348;9.648;2023-05-10T21:48:31;9.80;99.90
18073;DHT22;9161;47.348;9.648;2023-05-10T21:53:35;9.70;99.90
18073;DHT22;9161;47.348;9.648;2023-05-10T21:58:38;9.70;99.90
18073;DHT22;9161;47.348;9.648;2023-05-10T22:03:40;9.80;99.90
18073;DHT22;9161;47.348;9.648;2023-05-10T22:08:43;9.80;99.90
18073;DHT22;9161;47.348;9.648;2023-05-10T22:13:45;9.80;99.90
18073;DHT22;9161;47.348;9.648;2023-05-10T22:18:47;9.80;99.90
18073;DHT22;9161;47.348;9.648;2023-05-10T22:23:55;9.70;99.90
18073;DHT22;9161;47.348;9.648;2023-05-10T22:28:58;9.60;99.90
18073;DHT22;9161;47.348;9.648;2023-05-10T22:33:59;9.60;99.90
18073;DHT22;9161;47.348;9.648;2023-05-10T22:39:03;9.60;99.90
18073;DHT22;9161;47.348;9.648;2023-05-10T22:44:07;9.50;99.90
18073;DHT22;9161;47.348;9.648;2023-05-10T22:49:10;9.60;99.90
18073;DHT22;9161;47.348;9.648;2023-05-10T22:54:15;9.60;99.90
18073;DHT22;9161;47.348;9.648;2023-05-10T22:59:19;9.60;99.90
18073;DHT22;9161;47.348;9.648;2023-05-10T23:04:24;9.60;99.90
18073;DHT22;9161;47.348;9.648;2023-05-10T23:09:32;9.50;99.90
18073;DHT22;9161;47.348;9.648;2023-05-10T23:14:34;9.50;99.90
18073;DHT22;9161;47.348;9.648;2023-05-10T23:19:38;9.40;99.90
18073;DHT22;9161;47.348;9.648;2023-05-10T23:24:42;9.30;99.90
18073;DHT22;9161;47.348;9.648;2023-05-10T23:29:46;9.30;99.90
18073;DHT22;9161;47.348;9.648;2023-05-10T23:34:51;9.40;99.90
18073;DHT22;9161;47.348;9.648;2023-05-10T23:39:56;9.30;99.90
18073;DHT22;9161;47.348;9.648;2023-05-10T23:44:58;9.40;99.90
18073;DHT22;9161;47.348;9.648;2023-05-10T23:50:05;9.30;99.90
18073;DHT22;9161;47.348;9.648;2023-05-10T23:55:10;9.40;99.90
